Time;durP1;ratioP1;P1;durP2;ratioP2;P2;SDS_P1;SDS_P2;PMS_P1;PMS_P2;Temp;Humidity;BMP_temperature;BMP_pressure;BME280_temperature;BME280_humidity;BME280_pressure;Samples;Min_cycle;Max_cycle;Signal;HPM_P1;HPM_P2
2024/03/20 00:00:17;;;;;;;;;19.00;17.75;;;;;18.42;100.00;101138.97;2101639;27;46799;-62
2024/03/20 00:01:18;;;;;;;;;16.80;16.40;;;;;18.43;100.00;101143.41;2100073;28;46080;-62
2024/03/20 00:02:18;;;;;;;;;14.50;14.00;;;;;18.43;100.00;101139.84;2098229;27;47804;-62
2024/03/20 00:03:18;;;;;;;;;17.25;16.25;;;;;18.42;100.00;101144.34;2100029;28;46524;-62
2024/03/20 00:04:19;;;;;;;;;16.50;16.25;;;;;18.42;100.00;101143.44;2096216;28;47266;-61
2024/03/20 00:05:19;;;;;;;;;19.50;15.75;;;;;18.44;100.00;101138.91;2102251;28;47030;-62
2024/03/20 00:06:20;;;;;;;;;14.25;14.25;;;;;18.43;100.00;101145.22;2103735;28;46484;-60
2024/03/20 00:07:20;;;;;;;;;16.25;16.00;;;;;18.45;100.00;101141.50;2096772;28;46190;-61
2024/03/20 00:08:21;;;;;;;;;15.75;15.75;;;;;18.44;100.00;101145.16;2099436;28;46689;-62
2024/03/20 00:09:21;;;;;;;;;14.75;14.00;;;;;18.45;100.00;101141.50;2104429;27;46442;-60
2024/03/20 00:10:22;;;;;;;;;14.75;14.75;;;;;18.46;100.00;101145.94;2098292;27;46491;-61
2024/03/20 00:11:23;;;;;;;;;15.60;15.60;;;;;18.45;100.00;101146.00;2098892;28;46744;-61
2024/03/20 00:12:23;;;;;;;;;16.00;15.25;;;;;18.46;100.00;101153.13;2104552;27;45996;-61
2024/03/20 00:13:24;;;;;;;;;17.50;16.75;;;;;18.38;100.00;101155.28;2098535;27;46733;-64
2024/03/20 00:14:24;;;;;;;;;17.25;16.25;;;;;18.29;100.00;101147.66;2106875;27;46562;-61
2024/03/20 00:15:24;;;;;;;;;18.25;16.50;;;;;18.26;100.00;101145.13;2105864;27;46193;-62
2024/03/20 00:16:25;;;;;;;;;17.25;16.25;;;;;18.24;100.00;101148.75;2107007;27;46747;-61
2024/03/20 00:17:26;;;;;;;;;10.60;10.60;;;;;18.23;100.00;101144.31;2106610;27;46942;-60
2024/03/20 00:18:26;;;;;;;;;16.75;15.50;;;;;18.22;100.00;101153.34;2106738;27;46257;-61
2024/03/20 00:19:27;;;;;;;;;19.50;18.75;;;;;18.23;100.00;101143.47;2106071;27;45699;-60
2024/03/20 00:20:27;;;;;;;;;18.75;18.75;;;;;18.22;100.00;101152.47;2106366;27;46377;-61
2024/03/20 00:21:30;;;;;;;;;19.25;19.00;;;;;18.22;100.00;101152.47;2101903;27;46234;-62
2024/03/20 00:22:30;;;;;;;;;18.40;18.40;;;;;18.21;100.00;101153.41;2104088;28;46522;-62
2024/03/20 00:23:31;;;;;;;;;17.50;17.50;;;;;18.19;100.00;101155.28;2112227;27;46633;-61
2024/03/20 00:24:32;;;;;;;;;16.80;15.40;;;;;18.16;100.00;101150.03;2106420;27;46216;-62
2024/03/20 00:25:33;;;;;;;;;15.00;15.00;;;;;18.13;100.00;101153.75;2098623;28;46646;-60
2024/03/20 00:26:33;;;;;;;;;19.00;16.50;;;;;18.11;100.00;101146.72;2096109;27;46513;-58
2024/03/20 00:27:33;;;;;;;;;17.00;16.75;;;;;18.09;100.00;101152.16;2099459;28;46303;-63
2024/03/20 00:28:34;;;;;;;;;15.00;15.00;;;;;18.09;100.00;101145.91;2104609;27;47053;-62
2024/03/20 00:29:34;;;;;;;;;17.25;16.00;;;;;18.10;100.00;101144.97;2097235;28;46314;-60
2024/03/20 00:30:36;;;;;;;;;15.50;14.50;;;;;18.12;100.00;101145.75;2098447;28;46307;-61
2024/03/20 00:31:36;;;;;;;;;18.80;18.00;;;;;18.11;100.00;101144.91;2107343;27;46876;-61
2024/03/20 00:32:36;;;;;;;;;17.25;16.00;;;;;18.12;100.00;101148.44;2103515;27;46370;-61
2024/03/20 00:33:37;;;;;;;;;16.75;16.00;;;;;18.13;100.00;101139.44;2104511;27;46601;-62
2024/03/20 00:34:37;;;;;;;;;17.50;17.50;;;;;18.13;100.00;101143.00;2104045;27;45912;-62
2024/03/20 00:35:38;;;;;;;;;18.50;17.50;;;;;18.15;100.00;101143.78;2103203;27;46693;-59
2024/03/20 00:36:39;;;;;;;;;15.75;15.75;;;;;18.16;100.00;101133.94;2105925;27;45447;-59
2024/03/20 00:37:39;;;;;;;;;17.00;17.00;;;;;18.16;100.00;101133.94;2104658;27;47266;-60
2024/03/20 00:38:42;;;;;;;;;12.25;12.25;;;;;18.19;100.00;101131.13;2104677;27;46245;-59
2024/03/20 00:39:42;;;;;;;;;17.80;14.80;;;;;18.17;100.00;101131.19;2105991;28;46983;-62
2024/03/20 00:40:43;;;;;;;;;18.00;17.00;;;;;18.18;100.00;101132.94;2104095;27;46530;-61
2024/03/20 00:41:46;;;;;;;;;18.75;17.75;;;;;18.19;100.00;101132.00;2105506;27;46176;-62
2024/03/20 00:42:46;;;;;;;;;17.00;16.80;;;;;18.19;100.00;101134.69;2105315;27;46314;-61
2024/03/20 00:43:46;;;;;;;;;16.00;16.00;;;;;18.21;100.00;101134.59;2105165;27;47048;-61
2024/03/20 00:44:47;;;;;;;;;22.00;19.50;;;;;18.20;100.00;101141.78;2105660;27;45870;-62
2024/03/20 00:45:47;;;;;;;;;19.50;16.25;;;;;18.21;100.00;101134.59;2105192;27;46708;-61
2024/03/20 00:46:47;;;;;;;;;18.50;18.50;;;;;18.23;100.00;101138.09;2106187;27;46329;-61
2024/03/20 00:47:48;;;;;;;;;19.75;18.25;;;;;18.19;100.00;101136.50;2104190;27;46264;-61
2024/03/20 00:48:48;;;;;;;;;21.25;20.00;;;;;18.18;100.00;101138.31;2104873;27;46469;-60
2024/03/20 00:49:48;;;;;;;;;16.25;15.75;;;;;18.17;100.00;101135.69;2105759;27;46674;-61
2024/03/20 00:50:49;;;;;;;;;17.75;17.75;;;;;18.17;100.00;101138.38;2098373;27;46430;-61
2024/03/20 00:51:49;;;;;;;;;19.00;18.00;;;;;18.17;100.00;101150.00;2103452;28;46411;-61
2024/03/20 00:52:50;;;;;;;;;18.50;18.00;;;;;18.17;100.00;101141.94;2100288;28;46736;-61
2024/03/20 00:53:50;;;;;;;;;14.00;13.50;;;;;18.18;100.00;101134.75;2100541;27;45445;-61
2024/03/20 00:54:50;;;;;;;;;7.75;6.75;;;;;18.17;100.00;101139.25;2103372;28;46457;-62
2024/03/20 00:55:51;;;;;;;;;18.50;18.00;;;;;18.18;100.00;101137.44;2098431;28;46861;-62
2024/03/20 00:56:51;;;;;;;;;19.75;18.75;;;;;18.18;100.00;101137.44;2101917;27;46750;-61
2024/03/20 00:57:51;;;;;;;;;23.25;21.50;;;;;18.18;100.00;101134.75;2101765;28;46826;-62
2024/03/20 00:58:52;;;;;;;;;1.50;0.00;;;;;18.18;100.00;101132.94;2098960;27;46451;-62
2024/03/20 00:59:52;;;;;;;;;19.75;19.00;;;;;18.19;100.00;101139.19;2103168;28;46632;-62
2024/03/20 01:00:53;;;;;;;;;19.50;17.25;;;;;18.18;100.00;101132.94;2099860;28;46279;-63
2024/03/20 01:01:53;;;;;;;;;18.50;18.50;;;;;18.19;100.00;101139.19;2100416;27;46470;-63
2024/03/20 01:02:55;;;;;;;;;21.00;19.25;;;;;18.18;100.00;101126.69;2099214;28;47018;-63
2024/03/20 01:03:55;;;;;;;;;24.60;22.80;;;;;18.18;100.00;101132.06;2098046;28;47400;-62
2024/03/20 01:04:57;;;;;;;;;22.00;19.50;;;;;18.18;100.00;101134.75;2099984;27;46250;-64
2024/03/20 01:05:57;;;;;;;;;25.00;22.60;;;;;18.17;100.00;101124.94;2106221;27;46530;-63
2024/03/20 01:06:58;;;;;;;;;22.75;21.75;;;;;18.15;100.00;101121.44;2108542;27;46365;-61
2024/03/20 01:07:59;;;;;;;;;21.75;21.25;;;;;18.15;100.00;101132.19;2106163;27;46626;-62
2024/03/20 01:09:00;;;;;;;;;22.40;21.60;;;;;18.13;100.00;101132.25;2091105;28;46616;-63
2024/03/20 01:10:00;;;;;;;;;21.00;20.25;;;;;18.13;100.00;101140.31;2085239;28;46627;-62
2024/03/20 01:11:00;;;;;;;;;19.50;17.00;;;;;18.12;100.00;101138.56;2101593;27;46220;-62
2024/03/20 01:12:01;;;;;;;;;20.25;18.50;;;;;18.12;100.00;101137.72;2097550;28;46724;-62
2024/03/20 01:13:01;;;;;;;;;17.75;17.75;;;;;18.10;100.00;101139.59;2096709;28;45999;-63
2024/03/20 01:14:02;;;;;;;;;18.00;17.00;;;;;18.09;100.00;101140.53;2105532;28;46760;-63
2024/03/20 01:15:04;;;;;;;;;20.75;20.25;;;;;18.08;100.00;101136.97;2101793;27;47360;-62
2024/03/20 01:16:04;;;;;;;;;18.20;16.80;;;;;18.07;100.00;101134.38;2105283;28;46494;-63
2024/03/20 01:17:05;;;;;;;;;20.00;19.00;;;;;18.05;100.00;101134.44;2105094;27;46831;-62
2024/03/20 01:18:05;;;;;;;;;23.00;20.00;;;;;18.06;100.00;101130.81;2104890;28;46964;-63
2024/03/20 01:19:05;;;;;;;;;18.75;16.50;;;;;18.07;100.00;101134.38;2103559;28;46637;-63
2024/03/20 01:20:07;;;;;;;;;8.50;8.25;;;;;18.07;100.00;101134.38;2100437;27;46659;-63
2024/03/20 01:21:07;;;;;;;;;19.80;19.80;;;;;18.07;100.00;101131.69;2097315;28;46955;-63
2024/03/20 01:22:08;;;;;;;;;19.25;17.25;;;;;18.07;100.00;101135.25;2101483;28;46241;-63
2024/03/20 01:23:09;;;;;;;;;19.00;18.75;;;;;18.07;100.00;101129.00;2101508;27;46180;-63
2024/03/20 01:24:09;;;;;;;;;21.75;21.00;;;;;18.06;100.00;101138.00;2105648;28;46264;-61
2024/03/20 01:25:09;;;;;;;;;18.00;18.00;;;;;18.05;100.00;101133.56;2099456;27;46607;-63
2024/03/20 01:26:10;;;;;;;;;20.50;19.00;;;;;18.03;100.00;101133.63;2103499;27;45934;-63
2024/03/20 01:27:10;;;;;;;;;0.25;0.00;;;;;18.03;100.00;101127.38;2104964;28;45444;-62
2024/03/20 01:28:10;;;;;;;;;19.25;18.75;;;;;18.01;100.00;101137.31;2090377;28;45891;-64
2024/03/20 01:29:11;;;;;;;;;15.50;14.75;;;;;18.02;100.00;101139.06;2104508;28;46283;-62
2024/03/20 01:30:12;;;;;;;;;19.50;17.50;;;;;18.01;100.00;101135.50;2101102;28;45371;-62
2024/03/20 01:31:13;;;;;;;;;19.00;17.80;;;;;17.99;100.00;101137.41;2101569;27;46478;-64
2024/03/20 01:32:13;;;;;;;;;18.25;17.25;;;;;17.98;100.00;101138.34;2100148;28;46017;-61
2024/03/20 01:33:13;;;;;;;;;16.50;16.50;;;;;17.99;100.00;101141.91;2097914;27;46567;-62
2024/03/20 01:34:13;;;;;;;;;18.00;18.00;;;;;17.97;100.00;101133.91;2100703;28;46561;-62
2024/03/20 01:35:14;;;;;;;;;18.25;17.25;;;;;17.96;100.00;101129.50;2102772;28;46241;-62
2024/03/20 01:36:14;;;;;;;;;17.50;17.00;;;;;17.96;100.00;101137.53;2105374;27;46820;-60
2024/03/20 01:37:14;;;;;;;;;17.25;16.50;;;;;17.96;100.00;101139.34;2105235;27;46770;-62
2024/03/20 01:38:15;;;;;;;;;18.00;17.00;;;;;17.94;100.00;101140.31;2100341;28;46485;-63
2024/03/20 01:39:16;;;;;;;;;19.25;16.75;;;;;17.93;100.00;101130.50;2104815;28;46904;-63
2024/03/20 01:40:16;;;;;;;;;19.00;17.80;;;;;17.93;100.00;101138.56;2105065;27;46512;-63
2024/03/20 01:41:17;;;;;;;;;18.75;17.75;;;;;17.93;100.00;101135.00;2100326;27;46760;-63
2024/03/20 01:42:17;;;;;;;;;15.25;14.00;;;;;17.93;100.00;101135.00;2105207;27;46567;-62
2024/03/20 01:43:20;;;;;;;;;17.00;15.25;;;;;17.91;100.00;101131.50;2103578;27;46098;-62
2024/03/20 01:44:20;;;;;;;;;17.80;17.00;;;;;17.88;100.00;101132.50;2100258;27;46227;-62
2024/03/20 01:45:21;;;;;;;;;17.75;12.75;;;;;17.86;100.00;101128.16;2104943;27;48276;-61
2024/03/20 01:46:33;;;;;;;;;17.20;17.20;;;;;17.85;100.00;101126.41;2105232;27;46512;-61
2024/03/20 01:47:33;;;;;;;;;16.00;16.00;;;;;17.82;100.00;101130.13;2096736;28;46305;-61
2024/03/20 01:48:33;;;;;;;;;14.67;14.67;;;;;17.80;100.00;101134.69;2101752;28;46411;-61
2024/03/20 01:49:34;;;;;;;;;19.50;17.50;;;;;17.80;100.00;101136.50;2101259;27;46150;-59
2024/03/20 01:50:35;;;;;;;;;20.75;17.25;;;;;17.79;100.00;101138.31;2103308;27;46449;-61
2024/03/20 01:51:37;;;;;;;;;14.50;14.50;;;;;17.79;100.00;101137.44;2099926;28;46237;-61
2024/03/20 01:52:51;;;;;;;;;18.60;16.80;;;;;17.79;100.00;101135.63;2099718;27;46314;-61
2024/03/20 01:53:55;;;;;;;;;17.60;16.60;;;;;17.76;100.00;101137.56;2096891;28;46473;-62
2024/03/20 01:54:55;;;;;;;;;21.20;18.00;;;;;17.72;100.00;101135.97;2100962;28;46594;-62
2024/03/20 01:55:56;;;;;;;;;19.50;18.00;;;;;17.70;100.00;101135.16;2104479;28;46369;-62
2024/03/20 01:56:56;;;;;;;;;16.75;16.75;;;;;17.68;100.00;101135.19;2094194;28;46266;-61
2024/03/20 01:57:56;;;;;;;;;16.25;16.25;;;;;17.69;100.00;101133.44;2094612;28;45539;-61
2024/03/20 01:58:57;;;;;;;;;14.75;14.75;;;;;17.68;100.00;101135.19;2105448;28;47054;-62
2024/03/20 01:59:57;;;;;;;;;15.50;15.50;;;;;17.67;100.00;101138.84;2105241;27;46617;-62
2024/03/20 02:00:57;;;;;;;;;17.00;17.00;;;;;17.69;100.00;101130.75;2104147;27;46666;-65
2024/03/20 02:01:58;;;;;;;;;16.25;14.75;;;;;17.64;100.00;101144.31;2095231;28;46302;-61
2024/03/20 02:03:00;;;;;;;;;18.00;16.00;;;;;17.65;100.00;101144.25;2096265;28;46417;-62
2024/03/20 02:04:02;;;;;;;;;17.80;15.20;;;;;17.65;100.00;101144.25;2102987;27;46411;-60
2024/03/20 02:05:02;;;;;;;;;18.60;16.00;;;;;17.63;100.00;101143.44;2099011;27;46220;-61
2024/03/20 02:06:03;;;;;;;;;17.00;16.00;;;;;17.62;100.00;101146.19;2087181;28;47095;-62
2024/03/20 02:07:03;;;;;;;;;17.00;16.25;;;;;17.61;100.00;101141.78;2091529;28;46239;-61
2024/03/20 02:08:04;;;;;;;;;19.00;18.00;;;;;17.56;100.00;101139.31;2107465;27;46520;-60
2024/03/20 02:09:05;;;;;;;;;19.00;17.00;;;;;17.56;100.00;101138.44;2105077;27;47200;-60
2024/03/20 02:10:05;;;;;;;;;17.50;15.75;;;;;17.53;100.00;101141.22;2095215;28;46444;-61
2024/03/20 02:11:06;;;;;;;;;13.00;13.00;;;;;17.53;100.00;101143.91;2094889;28;45778;-61
2024/03/20 02:12:06;;;;;;;;;15.50;15.50;;;;;17.51;100.00;101137.75;2105184;28;46300;-61
2024/03/20 02:13:07;;;;;;;;;20.25;16.50;;;;;17.51;100.00;101137.75;2104564;27;46629;-60
2024/03/20 02:14:08;;;;;;;;;17.75;16.50;;;;;17.49;100.00;101137.81;2105125;28;46753;-61
2024/03/20 02:15:09;;;;;;;;;16.80;16.60;;;;;17.47;100.00;101133.44;2100467;28;47052;-62
2024/03/20 02:16:09;;;;;;;;;14.75;14.75;;;;;17.46;100.00;101127.22;2104683;28;46595;-60
2024/03/20 02:17:10;;;;;;;;;15.75;15.75;;;;;17.45;100.00;101130.84;2103595;28;46416;-60
2024/03/20 02:18:10;;;;;;;;;14.50;14.50;;;;;17.44;100.00;101139.84;2103449;28;45621;-62
2024/03/20 02:19:10;;;;;;;;;16.75;16.00;;;;;17.42;100.00;101136.34;2097304;28;46119;-61
2024/03/20 02:20:11;;;;;;;;;16.25;16.25;;;;;17.42;100.00;101130.97;2104953;28;46530;-61
2024/03/20 02:21:19;;;;;;;;;18.00;17.25;;;;;17.42;100.00;101136.34;2104624;28;46228;-62
2024/03/20 02:22:20;;;;;;;;;13.60;13.00;;;;;17.42;100.00;101135.47;2096943;28;46400;-62
2024/03/20 02:23:20;;;;;;;;;16.75;16.75;;;;;17.44;100.00;101136.28;2101102;27;46287;-62
2024/03/20 02:24:20;;;;;;;;;15.75;15.75;;;;;17.44;100.00;101141.66;2100388;28;46573;-62
2024/03/20 02:25:28;;;;;;;;;14.75;14.75;;;;;17.45;100.00;101140.69;2105066;27;46699;-62
2024/03/20 02:26:28;;;;;;;;;15.80;14.60;;;;;17.44;100.00;101136.28;2097582;27;46959;-61
2024/03/20 02:27:29;;;;;;;;;16.00;16.00;;;;;17.42;100.00;101136.34;2099570;28;46846;-62
2024/03/20 02:28:29;;;;;;;;;17.75;17.00;;;;;17.43;100.00;101131.84;2105104;27;46541;-62
2024/03/20 02:29:29;;;;;;;;;17.75;17.25;;;;;17.45;100.00;101140.69;2104358;27;46312;-62
2024/03/20 02:30:31;;;;;;;;;15.00;15.00;;;;;17.45;100.00;101138.03;2105156;27;46276;-63
2024/03/20 02:31:32;;;;;;;;;19.80;18.80;;;;;17.45;100.00;101132.66;2105076;27;46788;-62
2024/03/20 02:32:32;;;;;;;;;18.25;18.25;;;;;17.43;100.00;101134.53;2105183;28;46909;-62
2024/03/20 02:33:34;;;;;;;;;16.50;16.00;;;;;17.45;100.00;101133.53;2097221;27;45537;-62
2024/03/20 02:34:34;;;;;;;;;19.60;18.40;;;;;17.48;100.00;101130.69;2103169;27;46379;-62
2024/03/20 02:35:34;;;;;;;;;19.25;19.25;;;;;17.49;100.00;101131.56;2102937;27;46397;-62
2024/03/20 02:36:35;;;;;;;;;17.50;17.50;;;;;17.49;100.00;101135.13;2102240;28;47010;-62
2024/03/20 02:37:36;;;;;;;;;18.25;17.50;;;;;17.50;100.00;101138.69;2105249;27;46225;-63
2024/03/20 02:38:37;;;;;;;;;17.50;17.50;;;;;17.49;100.00;101137.81;2104666;27;46535;-61
2024/03/20 02:39:38;;;;;;;;;16.80;15.40;;;;;17.49;100.00;101131.56;2100959;28;47104;-62
2024/03/20 02:40:38;;;;;;;;;19.50;19.25;;;;;17.49;100.00;101129.75;2103742;28;46472;-62
2024/03/20 02:41:38;;;;;;;;;18.75;15.25;;;;;17.50;100.00;101141.38;2103961;28;46160;-62
2024/03/20 02:42:39;;;;;;;;;19.25;17.75;;;;;17.52;100.00;101145.72;2099630;27;45936;-61
2024/03/20 02:43:39;;;;;;;;;19.75;18.00;;;;;17.52;100.00;101139.47;2101987;27;46528;-61
2024/03/20 02:44:40;;;;;;;;;15.50;15.50;;;;;17.49;100.00;101137.81;2102769;28;46262;-62
2024/03/20 02:45:40;;;;;;;;;15.25;15.25;;;;;17.47;100.00;101136.13;2105001;27;46991;-61
2024/03/20 02:46:40;;;;;;;;;17.00;16.00;;;;;17.44;100.00;101139.84;2105062;27;46199;-63
2024/03/20 02:47:41;;;;;;;;;17.75;14.75;;;;;17.43;100.00;101138.09;2104729;28;47192;-62
2024/03/20 02:48:41;;;;;;;;;16.75;16.75;;;;;17.43;100.00;101137.22;2104767;27;46295;-63
2024/03/20 02:49:41;;;;;;;;;13.50;13.50;;;;;17.42;100.00;101139.03;2099482;27;46558;-62
2024/03/20 02:50:42;;;;;;;;;16.00;15.00;;;;;17.42;100.00;101135.47;2089062;28;45885;-63
2024/03/20 02:51:42;;;;;;;;;16.00;14.25;;;;;17.42;100.00;101133.66;2093584;28;46460;-62
2024/03/20 02:52:43;;;;;;;;;13.75;13.75;;;;;17.42;100.00;101140.84;2098665;27;45983;-62
2024/03/20 02:53:43;;;;;;;;;14.00;13.00;;;;;17.42;100.00;101143.53;2102877;28;46817;-62
2024/03/20 02:54:43;;;;;;;;;16.00;15.25;;;;;17.43;100.00;101146.13;2104899;27;46631;-62
2024/03/20 02:55:46;;;;;;;;;16.50;16.00;;;;;17.44;100.00;101139.84;2104713;27;46146;-63
2024/03/20 02:56:47;;;;;;;;;18.40;16.00;;;;;17.44;100.00;101147.88;2104802;27;46982;-62
2024/03/20 02:57:47;;;;;;;;;17.50;16.00;;;;;17.45;100.00;101146.06;2104764;27;46452;-61
2024/03/20 02:58:48;;;;;;;;;16.00;15.00;;;;;17.43;100.00;101140.78;2098636;27;46281;-63
2024/03/20 02:59:48;;;;;;;;;17.00;15.00;;;;;17.41;100.00;101137.28;2110316;27;46282;-62
2024/03/20 03:00:48;;;;;;;;;18.75;18.75;;;;;17.43;100.00;101134.53;2109468;27;46449;-62
2024/03/20 03:01:49;;;;;;;;;15.00;15.00;;;;;17.42;100.00;101130.97;2102650;27;46315;-62
2024/03/20 03:02:49;;;;;;;;;21.00;19.25;;;;;17.42;100.00;101130.13;2103983;27;46249;-62
2024/03/20 03:03:51;;;;;;;;;17.00;16.00;;;;;17.41;100.00;101125.69;2102532;28;46293;-62
2024/03/20 03:04:51;;;;;;;;;18.60;16.00;;;;;17.39;100.00;101128.41;2098700;27;46861;-62
2024/03/20 03:05:52;;;;;;;;;16.00;14.75;;;;;17.35;100.00;101125.00;2098369;28;46653;-63
2024/03/20 03:06:52;;;;;;;;;15.00;14.75;;;;;17.32;100.00;101119.78;2101240;28;46776;-64
2024/03/20 03:07:53;;;;;;;;;16.25;16.00;;;;;17.31;100.00;101126.06;2103373;27;46282;-61
2024/03/20 03:08:53;;;;;;;;;14.20;14.00;;;;;17.27;100.00;101119.06;2106561;27;46932;-62
2024/03/20 03:09:54;;;;;;;;;17.00;16.25;;;;;17.24;100.00;101121.91;2089708;28;46647;-60
2024/03/20 03:10:56;;;;;;;;;16.00;16.00;;;;;17.24;100.00;101126.38;2090534;28;46921;-62
2024/03/20 03:11:56;;;;;;;;;15.00;15.00;;;;;17.24;100.00;101127.25;2108241;27;45799;-61
2024/03/20 03:12:57;;;;;;;;;17.00;17.00;;;;;17.25;100.00;101118.28;2107389;27;46727;-60
2024/03/20 03:13:57;;;;;;;;;20.00;19.00;;;;;17.23;100.00;101117.47;2107269;27;46161;-61
2024/03/20 03:14:57;;;;;;;;;16.75;15.75;;;;;17.22;100.00;101118.41;2109616;27;46598;-62
2024/03/20 03:16:03;;;;;;;;;16.50;16.50;;;;;17.22;100.00;101117.53;2108006;27;46637;-59
2024/03/20 03:17:04;;;;;;;;;17.80;16.60;;;;;17.20;100.00;101116.75;2098345;27;45999;-62
2024/03/20 03:18:04;;;;;;;;;18.75;18.25;;;;;17.19;100.00;101106.94;2102744;28;46342;-61
2024/03/20 03:19:06;;;;;;;;;16.50;16.50;;;;;17.17;100.00;101106.16;2099074;28;46246;-62
2024/03/20 03:20:14;;;;;;;;;17.80;17.00;;;;;17.15;100.00;101108.91;2104676;27;46329;-62
2024/03/20 03:21:14;;;;;;;;;18.20;17.20;;;;;17.13;100.00;101105.38;2102852;28;47009;-62
2024/03/20 03:22:14;;;;;;;;;17.75;15.50;;;;;17.11;100.00;101106.41;2106083;27;47031;-62
2024/03/20 03:23:15;;;;;;;;;14.00;12.25;;;;;17.08;100.00;101104.72;2099916;27;46789;-62
2024/03/20 03:24:15;;;;;;;;;21.00;20.25;;;;;17.07;100.00;101113.72;2098018;28;46549;-61
2024/03/20 03:25:15;;;;;;;;;16.00;15.50;;;;;17.05;100.00;101107.53;2102020;27;46202;-59
2024/03/20 03:26:15;;;;;;;;;17.50;16.50;;;;;17.04;100.00;101105.81;2102615;27;46372;-61
2024/03/20 03:27:16;;;;;;;;;16.50;15.75;;;;;17.04;100.00;101111.16;2096300;28;46155;-60
2024/03/20 03:28:16;;;;;;;;;19.00;17.00;;;;;17.00;100.00;101107.72;2099621;28;46194;-61
2024/03/20 03:29:16;;;;;;;;;16.75;16.75;;;;;17.00;100.00;101109.53;2098906;28;46233;-61
2024/03/20 03:30:17;;;;;;;;;15.50;15.25;;;;;16.98;100.00;101103.38;2096714;28;46233;-61
2024/03/20 03:31:17;;;;;;;;;16.75;16.75;;;;;16.98;100.00;101106.91;2099269;28;46268;-61
2024/03/20 03:32:17;;;;;;;;;16.00;16.00;;;;;16.95;100.00;101109.72;2097762;28;46327;-61
2024/03/20 03:33:18;;;;;;;;;18.50;16.50;;;;;16.92;100.00;101099.16;2104443;28;46209;-60
2024/03/20 03:34:18;;;;;;;;;17.00;15.50;;;;;16.91;100.00;101107.25;2104694;27;46296;-60
2024/03/20 03:35:21;;;;;;;;;19.50;18.50;;;;;16.91;100.00;101102.75;2107736;27;46863;-61
2024/03/20 03:36:21;;;;;;;;;17.80;15.80;;;;;16.88;100.00;101102.88;2099490;27;46687;-60
2024/03/20 03:37:21;;;;;;;;;19.00;17.50;;;;;16.89;100.00;101109.09;2099117;28;46405;-61
2024/03/20 03:38:22;;;;;;;;;16.50;15.50;;;;;16.87;100.00;101098.44;2096464;28;46260;-61
2024/03/20 03:39:22;;;;;;;;;19.25;17.75;;;;;16.89;100.00;101103.75;2099055;28;46622;-62
2024/03/20 03:40:22;;;;;;;;;22.00;18.50;;;;;16.89;100.00;101101.94;2103844;28;46623;-63
2024/03/20 03:41:23;;;;;;;;;23.75;20.25;;;;;16.90;100.00;101103.69;2104459;27;47107;-62
2024/03/20 03:42:23;;;;;;;;;19.50;18.50;;;;;16.91;100.00;101099.22;2103570;27;45404;-63
2024/03/20 03:43:23;;;;;;;;;20.00;18.00;;;;;16.92;100.00;101104.50;2104583;27;46613;-62
2024/03/20 03:44:24;;;;;;;;;15.00;15.00;;;;;16.92;100.00;101100.97;2103940;27;46299;-62
2024/03/20 03:45:24;;;;;;;;;22.50;22.50;;;;;16.93;100.00;101098.22;2096506;28;46816;-63
2024/03/20 03:46:24;;;;;;;;;23.25;20.75;;;;;16.93;100.00;101100.88;2104459;27;46893;-62
2024/03/20 03:47:28;;;;;;;;;19.50;17.75;;;;;16.96;100.00;101090.03;2101516;27;46032;-63
2024/03/20 03:48:30;;;;;;;;;24.80;21.80;;;;;16.96;100.00;101092.72;2103259;27;46323;-61
2024/03/20 03:49:30;;;;;;;;;21.00;21.00;;;;;16.95;100.00;101095.47;2099116;27;46479;-63
2024/03/20 03:50:30;;;;;;;;;24.50;24.25;;;;;16.96;100.00;101094.50;2103141;27;46591;-62
2024/03/20 03:51:31;;;;;;;;;23.25;22.50;;;;;16.94;100.00;101094.59;2101660;28;46246;-61
2024/03/20 03:52:31;;;;;;;;;20.75;20.25;;;;;16.95;100.00;101085.59;2100030;27;46772;-62
2024/03/20 03:53:32;;;;;;;;;21.50;20.00;;;;;16.95;100.00;101092.78;2104525;28;46438;-62
2024/03/20 03:54:32;;;;;;;;;22.25;21.50;;;;;16.95;100.00;101088.28;2100391;27;45890;-62
2024/03/20 03:55:33;;;;;;;;;23.75;21.50;;;;;16.93;100.00;101084.81;2102236;27;46474;-62
2024/03/20 03:56:33;;;;;;;;;24.25;22.25;;;;;16.92;100.00;101088.41;2103933;28;46599;-62
2024/03/20 03:57:33;;;;;;;;;26.25;23.50;;;;;16.93;100.00;101078.56;2100054;28;45906;-62
2024/03/20 03:58:34;;;;;;;;;26.00;24.50;;;;;16.94;100.00;101088.34;2102152;27;46687;-62
2024/03/20 03:59:34;;;;;;;;;23.25;22.50;;;;;16.94;100.00;101091.03;2103252;27;46707;-63
2024/03/20 04:00:35;;;;;;;;;24.25;21.75;;;;;16.93;100.00;101082.13;2104352;27;46683;-62
2024/03/20 04:01:35;;;;;;;;;22.60;22.40;;;;;16.92;100.00;101085.75;2105264;27;46432;-62
2024/03/20 04:02:36;;;;;;;;;26.00;23.25;;;;;16.90;100.00;101079.56;2094493;28;46509;-63
2024/03/20 04:03:36;;;;;;;;;22.25;21.50;;;;;16.90;100.00;101076.91;2094974;28;46795;-63
2024/03/20 04:04:37;;;;;;;;;25.00;23.75;;;;;16.92;100.00;101079.50;2086140;28;46200;-63
2024/03/20 04:05:37;;;;;;;;;23.00;22.00;;;;;16.92;100.00;101076.81;2086593;28;46140;-61
2024/03/20 04:06:38;;;;;;;;;21.25;20.00;;;;;16.91;100.00;101075.97;2083600;28;46371;-61
2024/03/20 04:07:38;;;;;;;;;24.75;24.75;;;;;16.91;100.00;101084.00;2078857;28;46307;-62
2024/03/20 04:08:39;;;;;;;;;25.50;23.00;;;;;16.91;100.00;101075.09;2085704;28;46408;-61
2024/03/20 04:09:39;;;;;;;;;23.00;22.00;;;;;16.92;100.00;101074.16;2081272;28;46839;-61
2024/03/20 04:10:40;;;;;;;;;21.50;20.00;;;;;16.93;100.00;101073.22;2080844;28;46366;-63
2024/03/20 04:11:40;;;;;;;;;21.75;20.50;;;;;16.93;100.00;101071.41;2087763;28;46955;-64
2024/03/20 04:12:40;;;;;;;;;21.25;20.75;;;;;16.95;100.00;101071.31;2086954;28;46470;-63
2024/03/20 04:13:41;;;;;;;;;21.00;20.00;;;;;16.95;100.00;101071.31;2086164;28;46509;-62
2024/03/20 04:14:41;;;;;;;;;19.75;19.75;;;;;16.95;100.00;101072.19;2074807;28;46751;-61
2024/03/20 04:15:43;;;;;;;;;22.50;22.25;;;;;16.96;100.00;101068.56;2079956;28;45238;-60
2024/03/20 04:16:43;;;;;;;;;21.60;19.00;;;;;16.96;100.00;101073.06;2081570;28;46420;-61
2024/03/20 04:17:44;;;;;;;;;19.75;19.25;;;;;16.96;100.00;101078.44;2086785;28;46232;-61
2024/03/20 04:18:45;;;;;;;;;17.75;17.75;;;;;16.95;100.00;101072.19;2089781;28;48571;-61
2024/03/20 04:19:45;;;;;;;;;19.75;19.75;;;;;16.95;100.00;101074.88;2087740;28;46456;-62
2024/03/20 04:20:45;;;;;;;;;17.25;15.50;;;;;16.95;100.00;101072.19;2084127;28;46685;-61
2024/03/20 04:21:46;;;;;;;;;17.75;16.25;;;;;16.97;100.00;101072.13;2080180;28;46467;-61
2024/03/20 04:22:47;;;;;;;;;18.00;17.75;;;;;16.98;100.00;101084.59;2079813;28;46573;-60
2024/03/20 04:23:47;;;;;;;;;19.20;17.40;;;;;17.00;100.00;101082.72;2085524;28;46854;-62
2024/03/20 04:24:48;;;;;;;;;18.25;18.25;;;;;17.00;100.00;101080.91;2088438;28;46166;-63
2024/03/20 04:25:48;;;;;;;;;16.75;16.25;;;;;17.01;100.00;101082.66;2087416;28;46324;-61
2024/03/20 04:26:49;;;;;;;;;16.25;15.25;;;;;17.01;100.00;101079.97;2088007;28;46241;-62
2024/03/20 04:27:49;;;;;;;;;19.20;18.40;;;;;17.01;100.00;101085.31;2087519;28;46414;-61
2024/03/20 04:28:50;;;;;;;;;17.75;16.75;;;;;17.01;100.00;101082.66;2086835;28;46451;-62
2024/03/20 04:29:51;;;;;;;;;21.75;20.25;;;;;17.01;100.00;101082.66;2084885;28;45579;-63
2024/03/20 04:30:52;;;;;;;;;22.00;17.60;;;;;17.02;100.00;101084.41;2075815;28;46731;-63
2024/03/20 04:31:53;;;;;;;;;22.50;20.25;;;;;17.02;100.00;101081.75;2085660;28;46474;-61
2024/03/20 04:32:53;;;;;;;;;21.75;20.25;;;;;17.01;100.00;101081.78;2085708;28;46395;-60